createdAt,value
2018-04-25T00:00:00.329Z,18.74
2018-04-25T00:01:00.559Z,18.73
2018-04-25T00:02:00.462Z,18.74
2018-04-25T00:03:00.366Z,18.71
2018-04-25T00:04:00.424Z,18.76
2018-04-25T00:05:00.459Z,18.72
2018-04-25T00:06:00.348Z,18.73
2018-04-25T00:07:00.502Z,18.72
2018-04-25T00:08:00.306Z,18.73
2018-04-25T00:09:00.482Z,18.72
2018-04-25T00:10:00.340Z,18.72
2018-04-25T00:11:00.546Z,18.7
2018-04-25T00:12:00.403Z,18.72
2018-04-25T00:13:00.527Z,18.72
2018-04-25T00:14:00.569Z,18.72
2018-04-25T00:15:00.475Z,18.72
2018-04-25T00:16:00.826Z,18.72
2018-04-25T00:17:00.516Z,18.72
2018-04-25T00:18:00.348Z,18.72
2018-04-25T00:19:00.571Z,18.71
2018-04-25T00:20:00.381Z,18.7
2018-04-25T00:21:00.524Z,18.71
2018-04-25T00:22:00.353Z,18.71
2018-04-25T00:23:00.352Z,18.7
2018-04-25T00:24:00.490Z,18.71
2018-04-25T00:25:00.462Z,18.71
2018-04-25T00:26:00.529Z,18.71
2018-04-25T00:27:00.541Z,18.7
2018-04-25T00:28:00.435Z,18.71
2018-04-25T00:29:00.296Z,18.69
2018-04-25T00:30:00.494Z,18.7
2018-04-25T00:31:00.420Z,18.72
2018-04-25T00:32:00.464Z,18.72
2018-04-25T00:33:00.419Z,18.7
2018-04-25T00:34:00.392Z,18.73
2018-04-25T00:35:00.433Z,18.69
2018-04-25T00:36:00.352Z,18.69
2018-04-25T00:37:00.374Z,18.71
2018-04-25T00:38:00.598Z,18.7
2018-04-25T00:39:00.734Z,18.69
2018-04-25T00:40:00.362Z,18.69
2018-04-25T00:41:00.325Z,18.68
2018-04-25T00:42:00.330Z,18.68
2018-04-25T00:43:00.695Z,18.69
2018-04-25T00:44:00.462Z,18.69
2018-04-25T00:45:00.528Z,18.68
2018-04-25T00:46:00.502Z,18.69
2018-04-25T00:47:00.323Z,18.66
2018-04-25T00:48:00.674Z,18.69
2018-04-25T00:49:00.552Z,18.68
2018-04-25T00:50:00.410Z,18.7
2018-04-25T00:51:00.358Z,18.69
2018-04-25T00:52:00.472Z,18.68
2018-04-25T00:53:00.454Z,18.67
2018-04-25T00:54:00.761Z,18.67
2018-04-25T00:55:00.582Z,18.69
2018-04-25T00:56:00.293Z,18.67
2018-04-25T00:57:00.539Z,18.67
2018-04-25T00:58:00.557Z,18.67
2018-04-25T00:59:00.554Z,18.68
2018-04-25T01:00:00.479Z,18.69
2018-04-25T01:01:00.591Z,18.68
2018-04-25T01:02:00.461Z,18.68
2018-04-25T01:03:00.413Z,18.68
2018-04-25T01:04:00.517Z,18.68
2018-04-25T01:05:00.408Z,18.69
2018-04-25T01:06:00.335Z,18.68
2018-04-25T01:07:00.426Z,18.66
2018-04-25T01:08:00.347Z,18.67
2018-04-25T01:09:00.601Z,18.67
2018-04-25T01:10:00.415Z,18.68
2018-04-25T01:11:00.448Z,18.69
2018-04-25T01:12:00.776Z,18.68
2018-04-25T01:13:00.508Z,18.66
2018-04-25T01:14:00.341Z,18.66
2018-04-25T01:15:00.447Z,18.66
2018-04-25T01:16:00.485Z,18.68
2018-04-25T01:17:00.356Z,18.66
2018-04-25T01:18:00.496Z,18.67
2018-04-25T01:19:00.447Z,18.66
2018-04-25T01:20:00.483Z,18.66
2018-04-25T01:21:00.487Z,18.67
2018-04-25T01:22:00.447Z,18.67
2018-04-25T01:23:00.423Z,18.68
2018-04-25T01:24:00.378Z,18.65
2018-04-25T01:25:00.484Z,18.67
2018-04-25T01:26:00.442Z,18.64
2018-04-25T01:27:00.493Z,18.66
2018-04-25T01:28:00.492Z,18.66
2018-04-25T01:29:00.268Z,18.66
2018-04-25T01:30:00.380Z,18.65
2018-04-25T01:31:00.232Z,18.64
2018-04-25T01:32:00.448Z,18.66
2018-04-25T01:33:00.279Z,18.67
2018-04-25T01:34:00.328Z,18.66
2018-04-25T01:35:00.361Z,18.66
2018-04-25T01:36:00.403Z,18.65
2018-04-25T01:37:00.292Z,18.65
2018-04-25T01:38:00.506Z,18.64
2018-04-25T01:39:00.504Z,18.66
2018-04-25T01:40:00.544Z,18.64
2018-04-25T01:41:00.247Z,18.64
2018-04-25T01:42:00.533Z,18.66
2018-04-25T01:43:00.436Z,18.66
2018-04-25T01:44:00.393Z,18.65
2018-04-25T01:45:00.520Z,18.64
2018-04-25T01:46:00.358Z,18.64
2018-04-25T01:47:00.502Z,18.63
2018-04-25T01:48:00.433Z,18.66
2018-04-25T01:49:00.780Z,18.64
2018-04-25T01:50:00.363Z,18.62
2018-04-25T01:51:00.501Z,18.64
2018-04-25T01:52:00.289Z,18.65
2018-04-25T01:53:00.372Z,18.64
2018-04-25T01:54:00.315Z,18.63
2018-04-25T01:55:00.508Z,18.63
2018-04-25T01:56:00.271Z,18.63
2018-04-25T01:57:00.531Z,18.62
2018-04-25T01:58:00.332Z,18.63
2018-04-25T01:59:00.419Z,18.61
2018-04-25T02:00:00.495Z,18.64
2018-04-25T02:01:00.482Z,18.63
2018-04-25T02:02:00.385Z,18.62
2018-04-25T02:03:00.412Z,18.63
2018-04-25T02:04:00.353Z,18.64
2018-04-25T02:05:00.458Z,18.62
2018-04-25T02:06:00.272Z,18.64
2018-04-25T02:07:00.416Z,18.63
2018-04-25T02:08:00.432Z,18.62
2018-04-25T02:09:00.518Z,18.63
2018-04-25T02:10:00.520Z,18.63
2018-04-25T02:11:00.521Z,18.64
2018-04-25T02:12:00.448Z,18.65
2018-04-25T02:13:00.406Z,18.62
2018-04-25T02:14:00.519Z,18.63
2018-04-25T02:15:00.319Z,18.65
2018-04-25T02:16:00.506Z,18.62
2018-04-25T02:17:00.366Z,18.62
2018-04-25T02:18:00.469Z,18.65
2018-04-25T02:19:00.733Z,18.61
2018-04-25T02:20:00.312Z,18.62
2018-04-25T02:21:00.287Z,18.62
2018-04-25T02:22:00.418Z,18.61
2018-04-25T02:23:00.418Z,18.61
2018-04-25T02:24:00.461Z,18.62
2018-04-25T02:25:00.495Z,18.62
2018-04-25T02:26:00.497Z,18.63
2018-04-25T02:27:00.299Z,18.66
2018-04-25T02:28:00.437Z,18.63
2018-04-25T02:29:00.559Z,18.62
2018-04-25T02:30:00.356Z,18.63
2018-04-25T02:31:00.363Z,18.61
2018-04-25T02:32:00.467Z,18.58
2018-04-25T02:33:00.334Z,18.61
2018-04-25T02:34:00.288Z,18.61
2018-04-25T02:35:00.503Z,18.61
2018-04-25T02:36:00.319Z,18.59
2018-04-25T02:37:00.361Z,18.62
2018-04-25T02:38:00.435Z,18.62
2018-04-25T02:39:00.382Z,18.62
2018-04-25T02:40:00.483Z,18.62
2018-04-25T02:41:00.660Z,18.61
2018-04-25T02:42:00.335Z,18.61
2018-04-25T02:43:00.409Z,18.58
2018-04-25T02:44:00.321Z,18.59
2018-04-25T02:45:00.363Z,18.61
2018-04-25T02:46:00.300Z,18.61
2018-04-25T02:47:00.389Z,18.62
2018-04-25T02:48:00.545Z,18.58
2018-04-25T02:49:00.420Z,18.57
2018-04-25T02:50:00.360Z,18.58
2018-04-25T02:51:00.335Z,18.59
2018-04-25T02:52:00.502Z,18.59
2018-04-25T02:53:00.401Z,18.61
2018-04-25T02:54:00.586Z,18.59
2018-04-25T02:55:00.517Z,18.62
2018-04-25T02:56:00.333Z,18.58
2018-04-25T02:57:00.307Z,18.61
2018-04-25T02:58:00.446Z,18.59
2018-04-25T02:59:01.237Z,18.57
2018-04-25T03:00:00.317Z,18.58
2018-04-25T03:01:00.523Z,18.57
2018-04-25T03:02:00.325Z,18.59
2018-04-25T03:03:00.424Z,18.61
2018-04-25T03:04:00.387Z,18.58
2018-04-25T03:05:00.516Z,18.58
2018-04-25T03:06:00.447Z,18.58
2018-04-25T03:07:00.344Z,18.57
2018-04-25T03:08:00.327Z,18.58
2018-04-25T03:09:00.451Z,18.57
2018-04-25T03:10:00.417Z,18.58
2018-04-25T03:11:00.623Z,18.58
2018-04-25T03:12:00.294Z,18.58
2018-04-25T03:13:00.330Z,18.57
2018-04-25T03:14:00.452Z,18.56
2018-04-25T03:15:00.344Z,18.58
2018-04-25T03:16:00.452Z,18.57
2018-04-25T03:17:00.400Z,18.59
2018-04-25T03:18:00.366Z,18.57
2018-04-25T03:19:00.517Z,18.59
2018-04-25T03:20:00.329Z,18.57
2018-04-25T03:21:00.490Z,18.56
2018-04-25T03:22:00.544Z,18.57
2018-04-25T03:23:00.304Z,18.59
2018-04-25T03:24:00.294Z,18.57
2018-04-25T03:25:00.284Z,18.58
2018-04-25T03:26:00.290Z,18.58
2018-04-25T03:27:00.434Z,18.59
2018-04-25T03:28:00.477Z,18.58
2018-04-25T03:29:00.474Z,18.56
2018-04-25T03:30:00.302Z,18.57
2018-04-25T03:31:00.496Z,18.57
2018-04-25T03:32:00.475Z,18.58
2018-04-25T03:33:00.458Z,18.57
2018-04-25T03:34:00.377Z,18.57
2018-04-25T03:35:00.532Z,18.57
2018-04-25T03:36:00.309Z,18.57
2018-04-25T03:37:00.469Z,18.57
2018-04-25T03:38:00.400Z,18.57
2018-04-25T03:39:00.451Z,18.55
2018-04-25T03:40:00.346Z,18.56
2018-04-25T03:41:00.611Z,18.55
2018-04-25T03:42:00.404Z,18.55
2018-04-25T03:43:00.412Z,18.54
2018-04-25T03:44:00.256Z,18.56
2018-04-25T03:45:00.387Z,18.57
2018-04-25T03:46:00.333Z,18.55
2018-04-25T03:47:00.521Z,18.55
2018-04-25T03:48:00.421Z,18.56
2018-04-25T03:49:00.477Z,18.56
2018-04-25T03:50:00.318Z,18.56
2018-04-25T03:51:00.476Z,18.53
2018-04-25T03:52:00.406Z,18.55
2018-04-25T03:53:00.303Z,18.56
2018-04-25T03:54:00.463Z,18.53
2018-04-25T03:55:00.488Z,18.55
2018-04-25T03:56:00.300Z,18.54
2018-04-25T03:57:00.480Z,18.54
2018-04-25T03:58:00.475Z,18.55
2018-04-25T03:59:00.656Z,18.55
2018-04-25T04:00:00.406Z,18.55
2018-04-25T04:01:00.265Z,18.56
2018-04-25T04:02:00.335Z,18.54
2018-04-25T04:03:00.374Z,18.57
2018-04-25T04:04:00.456Z,18.54
2018-04-25T04:05:00.270Z,18.56
2018-04-25T04:06:00.269Z,18.54
2018-04-25T04:07:00.467Z,18.54
2018-04-25T04:08:00.394Z,18.54
2018-04-25T04:09:00.459Z,18.54
2018-04-25T04:10:00.284Z,18.56
2018-04-25T04:11:00.277Z,18.55
2018-04-25T04:12:00.438Z,18.54
2018-04-25T04:13:00.849Z,18.54
2018-04-25T04:14:00.330Z,18.55
2018-04-25T04:15:00.329Z,18.54
2018-04-25T04:16:00.531Z,18.55
2018-04-25T04:17:00.330Z,18.55
2018-04-25T04:18:00.414Z,18.56
2018-04-25T04:19:00.296Z,18.55
2018-04-25T04:20:00.348Z,18.57
2018-04-25T04:21:00.339Z,18.55
2018-04-25T04:22:00.356Z,18.53
2018-04-25T04:23:00.460Z,18.55
2018-04-25T04:24:00.365Z,18.54
2018-04-25T04:25:00.263Z,18.54
2018-04-25T04:26:00.320Z,18.53
2018-04-25T04:27:00.378Z,18.53
2018-04-25T04:28:00.476Z,18.55
2018-04-25T04:29:00.477Z,18.54
2018-04-25T04:30:00.329Z,18.54
2018-04-25T04:31:00.459Z,18.54
2018-04-25T04:32:00.360Z,18.53
2018-04-25T04:33:00.291Z,18.55
2018-04-25T04:34:00.273Z,18.55
2018-04-25T04:35:00.414Z,18.55
2018-04-25T04:36:00.367Z,18.54
2018-04-25T04:37:00.257Z,18.55
2018-04-25T04:38:00.434Z,18.55
2018-04-25T04:39:00.464Z,18.55
2018-04-25T04:40:00.240Z,18.54
2018-04-25T04:41:00.455Z,18.54
2018-04-25T04:42:00.404Z,18.53
2018-04-25T04:43:00.331Z,18.54
2018-04-25T04:44:00.474Z,18.56
2018-04-25T04:45:00.334Z,18.53
2018-04-25T04:46:00.381Z,18.54
2018-04-25T04:47:00.402Z,18.55
2018-04-25T04:48:00.355Z,18.53
2018-04-25T04:49:00.433Z,18.53
2018-04-25T04:50:00.527Z,18.53
2018-04-25T04:51:00.342Z,18.54
2018-04-25T04:52:00.363Z,18.56
2018-04-25T04:53:00.632Z,18.53
2018-04-25T04:54:00.381Z,18.53
2018-04-25T04:55:00.483Z,18.54
2018-04-25T04:56:00.351Z,18.54
2018-04-25T04:57:00.460Z,18.53
2018-04-25T04:58:00.390Z,18.55
2018-04-25T04:59:00.382Z,18.54
2018-04-25T05:00:00.268Z,18.54
2018-04-25T05:01:00.439Z,18.55
2018-04-25T05:02:00.451Z,18.53
2018-04-25T05:03:00.665Z,18.52
2018-04-25T05:04:00.472Z,18.54
2018-04-25T05:05:00.402Z,18.55
2018-04-25T05:06:00.328Z,18.53
2018-04-25T05:07:00.419Z,18.53
2018-04-25T05:08:00.380Z,18.53
2018-04-25T05:09:00.326Z,18.55
2018-04-25T05:10:00.326Z,18.54
2018-04-25T05:11:00.353Z,18.52
2018-04-25T05:12:00.414Z,18.51
2018-04-25T05:13:00.653Z,18.53
2018-04-25T05:14:00.360Z,18.53
2018-04-25T05:15:00.369Z,18.53
2018-04-25T05:16:00.383Z,18.53
2018-04-25T05:17:00.392Z,18.51
2018-04-25T05:18:00.397Z,18.52
2018-04-25T05:19:00.396Z,18.53
2018-04-25T05:20:00.415Z,18.55
2018-04-25T05:21:00.443Z,18.52
2018-04-25T05:22:00.422Z,18.52
2018-04-25T05:23:00.521Z,18.51
2018-04-25T05:24:00.597Z,18.54
2018-04-25T05:25:00.437Z,18.53
2018-04-25T05:26:00.443Z,18.53
2018-04-25T05:27:00.304Z,18.53
2018-04-25T05:28:00.464Z,18.54
2018-04-25T05:29:00.434Z,18.52
2018-04-25T05:30:00.406Z,18.52
2018-04-25T05:31:00.353Z,18.53
2018-04-25T05:32:00.593Z,18.53
2018-04-25T05:33:00.237Z,18.51
2018-04-25T05:34:00.616Z,18.52
2018-04-25T05:35:00.359Z,18.53
2018-04-25T05:36:00.354Z,18.52
2018-04-25T05:37:00.387Z,18.54
2018-04-25T05:38:00.370Z,18.53
2018-04-25T05:39:00.393Z,18.51
2018-04-25T05:40:00.365Z,18.49
2018-04-25T05:41:00.299Z,18.52
2018-04-25T05:42:00.328Z,18.54
2018-04-25T05:43:00.357Z,18.52
2018-04-25T05:44:00.220Z,18.5
2018-04-25T05:45:00.327Z,18.51
2018-04-25T05:46:00.737Z,18.49
2018-04-25T05:47:00.466Z,18.51
2018-04-25T05:48:00.620Z,18.5
2018-04-25T05:49:00.475Z,18.51
2018-04-25T05:50:00.490Z,18.51
2018-04-25T05:51:00.301Z,18.5
2018-04-25T05:52:00.336Z,18.52
2018-04-25T05:53:00.227Z,18.53
2018-04-25T05:54:00.395Z,18.54
2018-04-25T05:55:00.293Z,18.55
2018-04-25T05:56:00.352Z,18.57
2018-04-25T05:57:00.402Z,18.58
2018-04-25T05:58:00.802Z,18.62
2018-04-25T05:59:00.241Z,18.61
2018-04-25T06:00:00.523Z,18.63
2018-04-25T06:01:00.295Z,18.62
2018-04-25T06:02:00.324Z,18.62
2018-04-25T06:03:00.286Z,18.62
2018-04-25T06:04:00.245Z,18.61
2018-04-25T06:05:00.593Z,18.59
2018-04-25T06:06:00.220Z,18.61
2018-04-25T06:07:00.238Z,18.57
2018-04-25T06:08:00.539Z,18.59
2018-04-25T06:09:00.427Z,18.62
2018-04-25T06:10:00.262Z,18.57
2018-04-25T06:11:00.243Z,18.57
2018-04-25T06:12:00.321Z,18.56
2018-04-25T06:13:00.362Z,18.58
2018-04-25T06:14:00.236Z,18.59
2018-04-25T06:15:00.316Z,18.57
2018-04-25T06:16:00.417Z,18.58
2018-04-25T06:17:00.340Z,18.58
2018-04-25T06:18:00.438Z,18.56
2018-04-25T06:19:00.267Z,18.55
2018-04-25T06:20:00.253Z,18.57
2018-04-25T06:21:00.258Z,18.57
2018-04-25T06:22:00.394Z,18.56
2018-04-25T06:23:00.313Z,18.57
2018-04-25T06:24:00.239Z,18.56
2018-04-25T06:25:00.373Z,18.58
2018-04-25T06:26:01.067Z,18.57
2018-04-25T06:27:00.318Z,18.57
2018-04-25T06:28:00.431Z,18.59
2018-04-25T06:29:00.335Z,18.57
2018-04-25T06:30:00.205Z,18.56
2018-04-25T06:31:00.235Z,18.57
2018-04-25T06:32:00.319Z,18.56
2018-04-25T06:33:00.244Z,18.57
2018-04-25T06:34:00.480Z,18.57
2018-04-25T06:35:00.272Z,18.56
2018-04-25T06:36:00.400Z,18.56
2018-04-25T06:37:00.413Z,18.56
2018-04-25T06:38:00.415Z,18.56
2018-04-25T06:39:00.417Z,18.55
2018-04-25T06:40:00.677Z,18.56
2018-04-25T06:41:00.268Z,18.55
2018-04-25T06:42:00.345Z,18.57
2018-04-25T06:43:00.344Z,18.56
2018-04-25T06:44:00.414Z,18.57
2018-04-25T06:45:00.676Z,18.56
2018-04-25T06:46:00.351Z,18.54
2018-04-25T06:47:00.340Z,18.56
2018-04-25T06:48:00.390Z,18.54
2018-04-25T06:49:00.411Z,18.55
2018-04-25T06:50:00.263Z,18.55
2018-04-25T06:51:00.434Z,18.54
2018-04-25T06:52:00.271Z,18.56
2018-04-25T06:53:00.306Z,18.57
2018-04-25T06:54:00.284Z,18.56
2018-04-25T06:55:00.724Z,18.58
2018-04-25T06:56:00.241Z,18.55
2018-04-25T06:57:00.425Z,18.57
2018-04-25T06:58:00.249Z,18.56
2018-04-25T06:59:00.215Z,18.56
2018-04-25T07:00:00.416Z,18.55
2018-04-25T07:01:00.408Z,18.55
2018-04-25T07:02:00.241Z,18.56
2018-04-25T07:03:00.519Z,18.55
2018-04-25T07:04:00.272Z,18.57
2018-04-25T07:05:00.236Z,18.55
2018-04-25T07:06:00.410Z,18.53
2018-04-25T07:07:00.278Z,18.55
2018-04-25T07:08:00.821Z,18.55
2018-04-25T07:09:00.400Z,18.54
2018-04-25T07:10:00.359Z,18.55
2018-04-25T07:11:00.373Z,18.56
2018-04-25T07:12:00.223Z,18.56
2018-04-25T07:13:00.225Z,18.55
2018-04-25T07:14:00.645Z,18.54
2018-04-25T07:15:00.343Z,18.54
2018-04-25T07:16:00.208Z,18.54
2018-04-25T07:17:00.331Z,18.57
2018-04-25T07:18:00.414Z,18.54
2018-04-25T07:19:00.339Z,18.54
2018-04-25T07:20:00.165Z,18.53
2018-04-25T07:21:00.164Z,18.52
2018-04-25T07:22:00.268Z,18.56
2018-04-25T07:23:00.330Z,18.54
2018-04-25T07:24:00.204Z,18.53
2018-04-25T07:25:00.493Z,18.56
2018-04-25T07:26:00.214Z,18.53
2018-04-25T07:27:00.300Z,18.56
2018-04-25T07:28:00.215Z,18.56
2018-04-25T07:29:00.357Z,18.56
2018-04-25T07:30:00.245Z,18.57
2018-04-25T07:31:00.230Z,18.53
2018-04-25T07:32:00.512Z,18.53
2018-04-25T07:33:00.405Z,18.55
2018-04-25T07:34:00.289Z,18.55
2018-04-25T07:35:00.364Z,18.52
2018-04-25T07:36:00.373Z,18.55
2018-04-25T07:37:00.313Z,18.53
2018-04-25T07:38:00.354Z,18.53
2018-04-25T07:39:00.251Z,18.56
2018-04-25T07:40:00.441Z,18.52
2018-04-25T07:41:00.385Z,18.52
2018-04-25T07:42:00.861Z,18.53
2018-04-25T07:43:00.347Z,18.54
2018-04-25T07:44:00.452Z,18.53
2018-04-25T07:45:00.431Z,18.53
2018-04-25T07:46:02.224Z,18.55
2018-04-25T07:47:00.345Z,18.53
2018-04-25T07:48:00.391Z,18.55
2018-04-25T07:49:00.299Z,18.52
2018-04-25T07:50:00.543Z,18.52
2018-04-25T07:51:00.449Z,18.54
2018-04-25T07:52:00.303Z,18.53
2018-04-25T07:53:00.285Z,18.52
2018-04-25T07:54:00.307Z,18.53
2018-04-25T07:55:00.459Z,18.51
2018-04-25T07:56:00.369Z,18.53
2018-04-25T07:57:00.376Z,18.55
2018-04-25T07:58:00.458Z,18.54
2018-04-25T07:59:00.405Z,18.51
2018-04-25T08:00:00.302Z,18.52
2018-04-25T08:01:00.532Z,18.53
2018-04-25T08:02:00.410Z,18.53
2018-04-25T08:03:00.333Z,18.53
2018-04-25T08:04:00.352Z,18.52
2018-04-25T08:05:00.228Z,18.52
2018-04-25T08:06:00.785Z,18.52
2018-04-25T08:07:00.422Z,18.53
2018-04-25T08:08:00.269Z,18.53
2018-04-25T08:09:00.611Z,18.55
2018-04-25T08:10:00.301Z,18.53
2018-04-25T08:11:00.304Z,18.5
2018-04-25T08:12:00.487Z,18.53
2018-04-25T08:13:00.305Z,18.53
2018-04-25T08:14:00.382Z,18.54
2018-04-25T08:15:00.394Z,18.54
2018-04-25T08:16:00.422Z,18.55
2018-04-25T08:17:00.257Z,18.54
2018-04-25T08:18:00.629Z,18.51
2018-04-25T08:19:00.433Z,18.51
2018-04-25T08:20:00.255Z,18.52
2018-04-25T08:21:00.335Z,18.51
2018-04-25T08:22:00.414Z,18.52
2018-04-25T08:23:00.365Z,18.52
2018-04-25T08:24:00.372Z,18.53
2018-04-25T08:25:00.282Z,18.53
2018-04-25T08:26:00.326Z,18.52
2018-04-25T08:27:00.402Z,18.52
2018-04-25T08:28:00.259Z,18.52
2018-04-25T08:29:00.278Z,18.51
2018-04-25T08:30:00.161Z,18.52
2018-04-25T08:31:00.336Z,18.53
2018-04-25T08:32:00.214Z,18.55
2018-04-25T08:33:00.362Z,18.53
2018-04-25T08:34:00.195Z,18.52
2018-04-25T08:35:00.375Z,18.51
2018-04-25T08:36:00.154Z,18.51
2018-04-25T08:37:00.383Z,18.52
2018-04-25T08:38:00.315Z,18.53
2018-04-25T08:39:00.324Z,18.53
2018-04-25T08:40:00.360Z,18.53
2018-04-25T08:41:00.379Z,18.52
2018-04-25T08:42:00.191Z,18.51
2018-04-25T08:43:00.228Z,18.53
2018-04-25T08:44:00.387Z,18.53
2018-04-25T08:45:00.710Z,18.53
2018-04-25T08:46:00.223Z,18.52
2018-04-25T08:47:00.254Z,18.54
2018-04-25T08:48:00.436Z,18.52
2018-04-25T08:49:00.273Z,18.52
2018-04-25T08:50:00.362Z,18.52
2018-04-25T08:51:00.380Z,18.53
2018-04-25T08:52:00.391Z,18.51
2018-04-25T08:53:00.387Z,18.52
2018-04-25T08:54:00.375Z,18.52
2018-04-25T08:55:02.189Z,18.5
2018-04-25T08:56:00.168Z,18.5
2018-04-25T08:57:00.384Z,18.52
2018-04-25T08:58:00.364Z,18.53
2018-04-25T08:59:00.183Z,18.52
2018-04-25T09:00:00.316Z,18.53
2018-04-25T09:01:00.430Z,18.51
2018-04-25T09:02:00.223Z,18.53
2018-04-25T09:03:00.348Z,18.52
2018-04-25T09:04:00.585Z,18.53
2018-04-25T09:05:00.486Z,18.53
2018-04-25T09:06:00.220Z,18.52
2018-04-25T09:07:00.416Z,18.53
2018-04-25T09:08:00.153Z,18.53
2018-04-25T09:09:00.318Z,18.53
2018-04-25T09:10:00.397Z,18.53
2018-04-25T09:11:00.219Z,18.51
2018-04-25T09:12:00.412Z,18.53
2018-04-25T09:13:00.421Z,18.53
2018-04-25T09:14:00.290Z,18.51
2018-04-25T09:15:00.209Z,18.53
2018-04-25T09:16:00.172Z,18.53
2018-04-25T09:17:00.324Z,18.52
2018-04-25T09:18:00.201Z,18.52
2018-04-25T09:19:00.212Z,18.52
2018-04-25T09:20:00.329Z,18.53
2018-04-25T09:21:00.383Z,18.55
2018-04-25T09:22:00.186Z,18.51
2018-04-25T09:23:00.358Z,18.53
2018-04-25T09:24:00.310Z,18.55
2018-04-25T09:25:00.206Z,18.51
2018-04-25T09:26:00.285Z,18.51
2018-04-25T09:27:00.216Z,18.54
2018-04-25T09:28:00.242Z,18.52
2018-04-25T09:29:00.441Z,18.52
2018-04-25T09:30:00.343Z,18.51
2018-04-25T09:31:00.310Z,18.51
2018-04-25T09:32:00.316Z,18.53
2018-04-25T09:33:00.169Z,18.51
2018-04-25T09:34:00.310Z,18.51
2018-04-25T09:35:00.358Z,18.52
2018-04-25T09:36:00.440Z,18.51
2018-04-25T09:37:00.412Z,18.51
2018-04-25T09:38:00.375Z,18.52
2018-04-25T09:39:00.382Z,18.52
2018-04-25T09:40:00.290Z,18.52
2018-04-25T09:41:00.341Z,18.51
2018-04-25T09:42:00.267Z,18.5
2018-04-25T09:43:00.368Z,18.51
2018-04-25T09:44:00.156Z,18.52
2018-04-25T09:45:00.152Z,18.52
2018-04-25T09:46:00.841Z,18.51
2018-04-25T09:47:00.149Z,18.51
2018-04-25T09:48:00.157Z,18.52
2018-04-25T09:49:00.345Z,18.52
2018-04-25T09:50:00.286Z,18.52
2018-04-25T09:51:00.568Z,18.53
2018-04-25T09:52:00.222Z,18.5
2018-04-25T09:53:00.350Z,18.51
2018-04-25T09:54:00.371Z,18.51
2018-04-25T09:55:00.303Z,18.53
2018-04-25T09:56:00.252Z,18.5
2018-04-25T09:57:00.294Z,18.53
2018-04-25T09:58:00.581Z,18.52
2018-04-25T09:59:00.154Z,18.52
2018-04-25T10:00:00.317Z,18.51
2018-04-25T10:01:00.151Z,18.51
2018-04-25T10:02:00.279Z,18.52
2018-04-25T10:03:00.235Z,18.51
2018-04-25T10:04:00.657Z,18.51
2018-04-25T10:05:00.261Z,18.5
2018-04-25T10:06:00.545Z,18.51
2018-04-25T10:07:00.280Z,18.53
2018-04-25T10:08:00.309Z,18.51
2018-04-25T10:09:00.187Z,18.52
2018-04-25T10:10:00.243Z,18.51
2018-04-25T10:11:00.353Z,18.5
2018-04-25T10:12:00.296Z,18.52
2018-04-25T10:13:00.323Z,18.5
2018-04-25T10:14:00.183Z,18.49
2018-04-25T10:15:00.208Z,18.51
2018-04-25T10:16:00.400Z,18.51
2018-04-25T10:17:00.781Z,18.5
2018-04-25T10:18:00.147Z,18.53
2018-04-25T10:19:00.211Z,18.52
2018-04-25T10:20:00.258Z,18.51
2018-04-25T10:21:00.340Z,18.5
2018-04-25T10:22:00.280Z,18.51
2018-04-25T10:23:00.174Z,18.51
2018-04-25T10:24:00.498Z,18.52
2018-04-25T10:25:00.207Z,18.51
2018-04-25T10:26:00.402Z,18.5
2018-04-25T10:27:00.363Z,18.49
2018-04-25T10:28:00.371Z,18.52
2018-04-25T10:29:00.319Z,18.51
2018-04-25T10:30:00.332Z,18.49
2018-04-25T10:31:00.182Z,18.49
2018-04-25T10:32:00.614Z,18.51
2018-04-25T10:33:00.142Z,18.5
2018-04-25T10:34:00.345Z,18.52
2018-04-25T10:35:00.369Z,18.5
2018-04-25T10:36:00.317Z,18.52
2018-04-25T10:37:00.283Z,18.51
2018-04-25T10:38:00.424Z,18.5
2018-04-25T10:39:00.717Z,18.51
2018-04-25T10:40:00.167Z,18.5
2018-04-25T10:41:00.331Z,18.5
2018-04-25T10:42:00.254Z,18.5
2018-04-25T10:43:00.325Z,18.49
2018-04-25T10:44:00.241Z,18.5
2018-04-25T10:45:00.238Z,18.49
2018-04-25T10:46:00.251Z,18.52
2018-04-25T10:47:00.339Z,18.5
2018-04-25T10:48:00.141Z,18.51
2018-04-25T10:49:00.363Z,18.51
2018-04-25T10:50:00.305Z,18.52
2018-04-25T10:51:00.387Z,18.51
2018-04-25T10:52:00.213Z,18.5
2018-04-25T10:53:00.323Z,18.51
2018-04-25T10:54:00.231Z,18.49
2018-04-25T10:55:00.200Z,18.52
2018-04-25T10:56:00.429Z,18.5
2018-04-25T10:57:00.362Z,18.52
2018-04-25T10:58:00.255Z,18.51
2018-04-25T10:59:00.348Z,18.49
2018-04-25T11:00:00.355Z,18.51
2018-04-25T11:01:00.146Z,18.48
2018-04-25T11:02:00.179Z,18.51
2018-04-25T11:03:00.249Z,18.51
2018-04-25T11:04:00.315Z,18.5
2018-04-25T11:05:00.282Z,18.5
2018-04-25T11:06:00.145Z,18.51
2018-04-25T11:07:00.250Z,18.49
2018-04-25T11:08:00.344Z,18.5
2018-04-25T11:09:00.370Z,18.5
2018-04-25T11:10:00.337Z,18.5
2018-04-25T11:11:00.157Z,18.49
2018-04-25T11:12:00.128Z,18.49
2018-04-25T11:13:00.131Z,18.49
2018-04-25T11:14:00.213Z,18.49
2018-04-25T11:15:00.434Z,18.47
2018-04-25T11:16:00.225Z,18.51
2018-04-25T11:17:00.035Z,18.49
2018-04-25T11:18:00.179Z,18.5
2018-04-25T11:19:00.298Z,18.5
2018-04-25T11:20:00.266Z,18.5
2018-04-25T11:21:00.332Z,18.5
2018-04-25T11:22:00.337Z,18.49
2018-04-25T11:23:00.213Z,18.5
2018-04-25T11:24:00.233Z,18.49
2018-04-25T11:25:00.239Z,18.51
2018-04-25T11:26:00.243Z,18.5
2018-04-25T11:27:00.198Z,18.5
2018-04-25T11:28:00.263Z,18.5
2018-04-25T11:29:00.178Z,18.49
2018-04-25T11:30:00.220Z,18.49
2018-04-25T11:31:00.192Z,18.49
2018-04-25T11:32:00.773Z,18.52
2018-04-25T11:33:00.407Z,18.51
2018-04-25T11:34:00.277Z,18.5
2018-04-25T11:35:00.329Z,18.5
2018-04-25T11:36:00.348Z,18.48
2018-04-25T11:37:00.287Z,18.49
2018-04-25T11:38:02.353Z,18.49
2018-04-25T11:39:00.288Z,18.5
2018-04-25T11:40:00.315Z,18.5
2018-04-25T11:41:00.161Z,18.52
2018-04-25T11:42:00.270Z,18.53
2018-04-25T11:43:00.217Z,18.56
2018-04-25T11:44:00.173Z,18.58
2018-04-25T11:45:00.361Z,18.58
2018-04-25T11:46:00.312Z,18.61
2018-04-25T11:47:00.374Z,18.59
2018-04-25T11:48:00.528Z,18.61
2018-04-25T11:49:00.315Z,18.62
2018-04-25T11:50:00.180Z,18.64
2018-04-25T11:51:00.194Z,18.65
2018-04-25T11:52:00.320Z,18.63
2018-04-25T11:53:00.230Z,18.62
2018-04-25T11:54:00.163Z,18.63
2018-04-25T11:55:00.343Z,18.62
2018-04-25T11:56:00.322Z,18.61
2018-04-25T11:57:00.191Z,18.62
2018-04-25T11:58:00.332Z,18.59
2018-04-25T11:59:00.143Z,18.58
2018-04-25T12:00:00.255Z,18.58
2018-04-25T12:01:00.166Z,18.61
2018-04-25T12:02:00.374Z,18.59
2018-04-25T12:03:00.163Z,18.58
2018-04-25T12:04:00.435Z,18.59
2018-04-25T12:05:00.685Z,18.58
2018-04-25T12:06:00.219Z,18.59
2018-04-25T12:07:00.383Z,18.59
2018-04-25T12:08:00.175Z,18.58
2018-04-25T12:09:00.180Z,18.59
2018-04-25T12:10:00.207Z,18.61
2018-04-25T12:11:00.180Z,18.57
2018-04-25T12:12:00.181Z,18.61
2018-04-25T12:13:00.290Z,18.58
2018-04-25T12:14:00.325Z,18.57
2018-04-25T12:15:00.134Z,18.58
2018-04-25T12:16:00.314Z,18.58
2018-04-25T12:17:00.135Z,18.57
2018-04-25T12:18:00.564Z,18.56
2018-04-25T12:19:00.274Z,18.58
2018-04-25T12:20:00.243Z,18.56
2018-04-25T12:21:00.082Z,18.57
2018-04-25T12:22:00.116Z,18.57
2018-04-25T12:23:00.190Z,18.55
2018-04-25T12:24:00.304Z,18.58
2018-04-25T12:25:00.297Z,18.57
2018-04-25T12:26:00.236Z,18.56
2018-04-25T12:27:00.294Z,18.57
2018-04-25T12:28:00.046Z,18.58
2018-04-25T12:29:00.414Z,18.56
2018-04-25T12:30:00.289Z,18.56
2018-04-25T12:31:00.230Z,18.56
2018-04-25T12:32:00.406Z,18.57
2018-04-25T12:33:00.346Z,18.54
2018-04-25T12:34:00.377Z,18.56
2018-04-25T12:35:00.335Z,18.55
2018-04-25T12:36:00.117Z,18.55
2018-04-25T12:37:00.158Z,18.57
2018-04-25T12:38:00.310Z,18.55
2018-04-25T12:39:00.343Z,18.55
2018-04-25T12:40:00.167Z,18.56
2018-04-25T12:41:00.338Z,18.53
2018-04-25T12:42:00.257Z,18.54
2018-04-25T12:43:00.288Z,18.55
2018-04-25T12:44:00.278Z,18.54
2018-04-25T12:45:00.267Z,18.56
2018-04-25T12:46:00.504Z,18.56
2018-04-25T12:47:00.351Z,18.55
2018-04-25T12:48:00.337Z,18.55
2018-04-25T12:49:00.308Z,18.56
2018-04-25T12:50:00.323Z,18.57
2018-04-25T12:51:00.279Z,18.56
2018-04-25T12:52:00.393Z,18.54
2018-04-25T12:53:00.077Z,18.53
2018-04-25T12:54:00.627Z,18.55